Time;durP1;ratioP1;P1;durP2;ratioP2;P2;SDS_P1;SDS_P2;PMS_P1;PMS_P2;Temp;Humidity;BMP_temperature;BMP_pressure;BME280_temperature;BME280_humidity;BME280_pressure;Samples;Min_cycle;Max_cycle;Signal;HPM_P1;HPM_P2
2022/06/02 00:02:26;;;;;;;9.85;6.75;;;;;;;;;;10327885;28;20054;-68
2022/06/02 00:07:38;;;;;;;14.95;7.95;;;;;;;;;;10314711;28;20059;-67
2022/06/02 00:12:48;;;;;;;11.93;7.80;;;;;;;;;;10328026;28;20187;-67
2022/06/02 00:17:58;;;;;;;11.63;7.45;;;;;;;;;;10313037;28;20050;-67
2022/06/02 00:23:16;;;;;;;10.65;7.28;;;;;;;;;;10327216;28;20350;-68
2022/06/02 00:28:28;;;;;;;12.07;7.63;;;;;;;;;;10328090;28;20089;-67
2022/06/02 00:33:38;;;;;;;9.95;6.70;;;;;;;;;;10326938;28;20051;-68
2022/06/02 00:38:40;;;;;;;12.75;7.93;;;;;;;;;;10313593;28;20098;-67
2022/06/02 00:43:58;;;;;;;11.13;7.53;;;;;;;;;;10313117;28;20058;-68
2022/06/02 00:49:10;;;;;;;11.95;7.28;;;;;;;;;;10326975;28;20043;-68
2022/06/02 00:59:51;;;;;;;11.43;7.75;;;;;;;;;;10319620;28;20081;-67
2022/06/02 01:04:59;;;;;;;14.63;7.68;;;;;;;;;;10314027;28;20408;-66
2022/06/02 01:10:41;;;;;;;26.23;7.85;;;;;;;;;;10324723;28;20042;-66
2022/06/02 01:15:55;;;;;;;13.43;8.35;;;;;;;;;;10260916;28;20102;-66
2022/06/02 01:21:14;;;;;;;12.60;8.02;;;;;;;;;;10310602;28;20308;-66
2022/06/02 01:26:45;;;;;;;15.30;8.40;;;;;;;;;;10325668;28;20054;-66
2022/06/02 01:31:54;;;;;;;13.10;8.25;;;;;;;;;;10324065;28;20044;-66
2022/06/02 01:37:03;;;;;;;13.02;8.77;;;;;;;;;;10285446;28;20250;-66
2022/06/02 01:42:20;;;;;;;16.95;8.82;;;;;;;;;;10316520;28;20043;-66
2022/06/02 01:47:32;;;;;;;14.05;7.75;;;;;;;;;;10324046;28;20047;-67
2022/06/02 01:52:54;;;;;;;11.32;7.57;;;;;;;;;;10323771;28;20126;-66
2022/06/02 01:58:07;;;;;;;12.18;7.57;;;;;;;;;;10321083;28;20062;-66
2022/06/02 02:03:23;;;;;;;11.57;7.77;;;;;;;;;;10310559;28;20042;-67
2022/06/02 02:08:36;;;;;;;;;;;;;;;;;;10323458;28;20058;-66
2022/06/02 02:13:48;;;;;;;19.70;8.20;;;;;;;;;;10281596;28;19926;-66
2022/06/02 02:18:58;;;;;;;12.88;8.48;;;;;;;;;;10292176;28;20043;-67
2022/06/02 02:24:17;;;;;;;12.90;7.80;;;;;;;;;;10322965;28;20051;-68
2022/06/02 02:29:27;;;;;;;13.52;7.90;;;;;;;;;;10323354;28;20049;-67
2022/06/02 02:34:40;;;;;;;11.50;7.60;;;;;;;;;;10322315;28;20254;-67
2022/06/02 02:39:49;;;;;;;13.43;8.25;;;;;;;;;;10308717;28;20361;-67
2022/06/02 02:45:09;;;;;;;12.20;7.60;;;;;;;;;;10322153;28;20097;-67
2022/06/02 02:50:20;;;;;;;13.95;7.97;;;;;;;;;;10321757;28;20377;-67
2022/06/02 02:55:29;;;;;;;20.25;12.55;;;;;;;;;;10328458;28;20054;-66
2022/06/02 03:00:36;;;;;;;12.23;8.18;;;;;;;;;;10321222;28;20066;-66
2022/06/02 03:05:56;;;;;;;12.90;8.32;;;;;;;;;;10330079;28;20145;-66
2022/06/02 03:11:05;;;;;;;13.00;9.00;;;;;;;;;;10316763;28;20159;-66
2022/06/02 03:16:11;;;;;;;10.93;7.88;;;;;;;;;;10321065;28;20039;-66
2022/06/02 03:21:20;;;;;;;10.85;8.48;;;;;;;;;;10329075;28;20057;-67
2022/06/02 03:26:30;;;;;;;14.10;9.55;;;;;;;;;;10330198;28;20101;-67
2022/06/02 03:31:42;;;;;;;16.88;8.35;;;;;;;;;;10329898;28;20293;-67
2022/06/02 03:37:15;;;;;;;12.82;7.85;;;;;;;;;;10324009;28;20465;-65
2022/06/02 03:42:28;;;;;;;10.32;7.15;;;;;;;;;;10305782;28;20050;-66
2022/06/02 03:48:05;;;;;;;12.25;7.22;;;;;;;;;;10326243;28;20047;-67
2022/06/02 03:53:26;;;;;;;11.45;7.07;;;;;;;;;;10303319;28;20246;-66
2022/06/02 03:58:46;;;;;;;9.75;6.85;;;;;;;;;;10306063;28;20066;-66
2022/06/02 04:04:06;;;;;;;9.55;6.65;;;;;;;;;;10311960;28;20230;-67
2022/06/02 04:09:27;;;;;;;8.07;6.22;;;;;;;;;;10327689;28;20046;-67
2022/06/02 04:14:38;;;;;;;9.98;6.32;;;;;;;;;;10321335;28;20051;-67
2022/06/02 04:25:34;;;;;;;8.57;6.28;;;;;;;;;;10275781;28;20055;-67
2022/06/02 04:30:48;;;;;;;8.65;5.93;;;;;;;;;;10327639;28;20329;-67
2022/06/02 04:36:01;;;;;;;7.32;5.78;;;;;;;;;;10327333;28;20042;-67
2022/06/02 04:41:16;;;;;;;15.27;7.43;;;;;;;;;;10327996;28;20042;-68
2022/06/02 04:46:29;;;;;;;7.90;6.00;;;;;;;;;;10327286;28;20047;-66
2022/06/02 04:51:42;;;;;;;14.93;7.30;;;;;;;;;;10315130;28;20058;-66
2022/06/02 04:56:59;;;;;;;8.18;6.30;;;;;;;;;;10326178;28;20062;-67
2022/06/02 05:02:09;;;;;;;12.30;7.05;;;;;;;;;;10311376;28;20281;-67
2022/06/02 05:07:21;;;;;;;9.25;6.38;;;;;;;;;;10324530;28;20047;-67
2022/06/02 05:12:37;;;;;;;26.13;12.57;;;;;;;;;;10318941;28;20042;-70
2022/06/02 05:18:12;;;;;;;14.10;8.35;;;;;;;;;;10308443;28;20057;-67
2022/06/02 05:23:36;;;;;;;11.98;7.43;;;;;;;;;;10298594;28;20106;-66
2022/06/02 05:29:01;;;;;;;9.93;6.77;;;;;;;;;;10319442;28;20070;-68
2022/06/02 05:34:35;;;;;;;11.15;7.35;;;;;;;;;;10317880;28;20054;-67
2022/06/02 05:39:51;;;;;;;18.52;10.30;;;;;;;;;;10323890;28;20111;-68
2022/06/02 05:45:12;;;;;;;10.25;6.50;;;;;;;;;;10309771;28;20109;-68
2022/06/02 05:50:23;;;;;;;9.20;6.30;;;;;;;;;;10313160;28;20191;-67
2022/06/02 05:55:32;;;;;;;22.80;7.75;;;;;;;;;;10306180;28;20046;-67
2022/06/02 06:00:49;;;;;;;11.50;6.55;;;;;;;;;;10260092;28;1371604;-68
2022/06/02 06:05:54;;;;;;;8.98;6.03;;;;;;;;;;10309897;28;20042;-67
2022/06/02 06:11:07;;;;;;;10.48;5.60;;;;;;;;;;10308884;28;20047;-67
2022/06/02 06:16:16;;;;;;;6.45;5.25;;;;;;;;;;10307446;28;20047;-68
2022/06/02 06:21:34;;;;;;;8.25;5.28;;;;;;;;;;10322045;28;20043;-68
2022/06/02 06:26:48;;;;;;;9.95;4.75;;;;;;;;;;10321772;28;20082;-68
2022/06/02 06:32:02;;;;;;;4.90;4.03;;;;;;;;;;10308322;28;20334;-69
2022/06/02 06:37:18;;;;;;;4.53;3.20;;;;;;;;;;10307967;28;20246;-68
2022/06/02 06:42:39;;;;;;;6.55;3.60;;;;;;;;;;10320352;28;20046;-68
2022/06/02 06:47:46;;;;;;;4.82;3.40;;;;;;;;;;10320667;28;20055;-68
2022/06/02 06:53:04;;;;;;;13.10;4.32;;;;;;;;;;10313843;28;20050;-68
2022/06/02 06:58:20;;;;;;;4.68;3.90;;;;;;;;;;10317709;28;20055;-68
2022/06/02 07:03:32;;;;;;;5.28;4.05;;;;;;;;;;10319752;28;20142;-68
2022/06/02 07:08:38;;;;;;;5.57;3.50;;;;;;;;;;10320063;28;20067;-69
2022/06/02 07:13:47;;;;;;;3.78;3.00;;;;;;;;;;10306940;28;20058;-68
2022/06/02 07:18:58;;;;;;;3.00;2.65;;;;;;;;;;10319915;28;20356;-69
2022/06/02 07:24:16;;;;;;;2.85;2.15;;;;;;;;;;10301469;28;20440;-69
2022/06/02 07:29:29;;;;;;;3.80;2.38;;;;;;;;;;10306913;28;20063;-70
2022/06/02 07:34:50;;;;;;;6.95;2.50;;;;;;;;;;10319629;28;20047;-68
2022/06/02 07:40:22;;;;;;;2.92;2.40;;;;;;;;;;10323136;28;20101;-69
2022/06/02 07:45:32;;;;;;;4.50;3.00;;;;;;;;;;10309584;28;20246;-68
2022/06/02 07:50:40;;;;;;;4.88;4.57;;;;;;;;;;10325868;28;20047;-69
2022/06/02 07:55:52;;;;;;;2.58;2.38;;;;;;;;;;10312501;28;20050;-68
2022/06/02 08:01:01;;;;;;;1.20;1.20;;;;;;;;;;10315168;28;20058;-68
2022/06/02 08:06:13;;;;;;;5.93;5.72;;;;;;;;;;10305302;28;20050;-68
2022/06/02 08:11:23;;;;;;;13.07;12.48;;;;;;;;;;10326158;28;20046;-68
2022/06/02 08:16:28;;;;;;;9.70;9.30;;;;;;;;;;10316556;28;20058;-69
2022/06/02 08:21:39;;;;;;;18.27;17.38;;;;;;;;;;10312850;28;20054;-69
2022/06/02 08:26:51;;;;;;;25.95;24.58;;;;;;;;;;10324349;28;20043;-69
2022/06/02 08:32:25;;;;;;;42.50;40.08;;;;;;;;;;10311243;28;20274;-68
2022/06/02 08:37:36;;;;;;;12.02;11.52;;;;;;;;;;10305496;28;20054;-69
2022/06/02 08:43:33;;;;;;;0.30;0.30;;;;;;;;;;10310670;28;20065;-68
2022/06/02 08:48:58;;;;;;;0.20;0.20;;;;;;;;;;10302046;28;20424;-69
2022/06/02 08:54:36;;;;;;;1.90;1.90;;;;;;;;;;10304570;28;20059;-69
2022/06/02 09:00:18;;;;;;;0.00;0.00;;;;;;;;;;10305127;28;20073;-68
2022/06/02 09:06:01;;;;;;;3.65;1.98;;;;;;;;;;10303179;28;20051;-68
2022/06/02 09:11:36;;;;;;;3.40;2.30;;;;;;;;;;10307372;28;20129;-68
2022/06/02 09:16:55;;;;;;;2.58;1.83;;;;;;;;;;10300664;28;20067;-69
2022/06/02 09:22:10;;;;;;;0.85;0.85;;;;;;;;;;10322586;28;20339;-69
2022/06/02 09:27:39;;;;;;;0.30;0.30;;;;;;;;;;10311323;28;20062;-69
2022/06/02 09:33:33;;;;;;;0.20;0.20;;;;;;;;;;10322765;28;20038;-68
2022/06/02 09:38:48;;;;;;;0.90;0.90;;;;;;;;;;10295467;28;20318;-68
2022/06/02 09:44:29;;;;;;;0.80;0.80;;;;;;;;;;10303866;28;20047;-68
2022/06/02 09:50:10;;;;;;;2.10;0.75;;;;;;;;;;10300654;28;20050;-68
2022/06/02 09:55:29;;;;;;;1.63;1.30;;;;;;;;;;10307200;28;20043;-68
2022/06/02 10:00:57;;;;;;;1.98;1.20;;;;;;;;;;10306045;28;20061;-68
2022/06/02 10:06:14;;;;;;;2.47;1.60;;;;;;;;;;10313249;28;20046;-68
2022/06/02 10:11:29;;;;;;;1.40;1.30;;;;;;;;;;10312016;28;20098;-69
2022/06/02 10:17:12;;;;;;;1.45;1.27;;;;;;;;;;10307655;28;20065;-67
2022/06/02 10:22:21;;;;;;;2.83;1.63;;;;;;;;;;10253363;29;20051;-69
2022/06/02 10:28:00;;;;;;;1.73;1.35;;;;;;;;;;10249164;29;20050;-68
2022/06/02 10:33:40;;;;;;;2.28;1.80;;;;;;;;;;10249757;29;20068;-69
2022/06/02 10:38:51;;;;;;;2.35;1.70;;;;;;;;;;10238017;29;20102;-68
2022/06/02 10:44:16;;;;;;;2.28;1.70;;;;;;;;;;10251110;28;20351;-67
2022/06/02 10:49:27;;;;;;;2.83;1.85;;;;;;;;;;10270840;29;20059;-67
2022/06/02 10:55:17;;;;;;;2.17;1.65;;;;;;;;;;10259247;29;20051;-67
2022/06/02 11:00:39;;;;;;;1.83;1.65;;;;;;;;;;10305622;28;20057;-69
2022/06/02 11:06:18;;;;;;;3.45;1.65;;;;;;;;;;10318787;28;20054;-69
2022/06/02 11:11:52;;;;;;;3.78;2.25;;;;;;;;;;10308126;28;20266;-69
2022/06/02 11:17:37;;;;;;;4.40;2.92;;;;;;;;;;10312176;28;20062;-69
2022/06/02 11:23:06;;;;;;;4.30;2.60;;;;;;;;;;10328283;28;20125;-70
2022/06/02 11:28:50;;;;;;;6.15;2.42;;;;;;;;;;10308273;28;20055;-69
2022/06/02 11:34:40;;;;;;;6.05;1.70;;;;;;;;;;10270098;28;20059;-70
2022/06/02 11:40:22;;;;;;;2.92;1.90;;;;;;;;;;10151472;29;20072;-68
2022/06/02 11:45:47;;;;;;;1.90;1.70;;;;;;;;;;10144492;29;20071;-68
2022/06/02 11:51:08;;;;;;;2.53;1.60;;;;;;;;;;10154241;29;20056;-68
2022/06/02 11:56:17;;;;;;;1.92;1.25;;;;;;;;;;10149659;29;20102;-68
2022/06/02 12:01:41;;;;;;;2.80;1.52;;;;;;;;;;10135623;29;20072;-69
2022/06/02 12:07:11;;;;;;;1.98;1.42;;;;;;;;;;10152984;29;20056;-69
2022/06/02 12:12:29;;;;;;;6.47;2.15;;;;;;;;;;10250520;28;20051;-69
2022/06/02 12:17:56;;;;;;;1.92;1.40;;;;;;;;;;10300466;28;20050;-69
2022/06/02 12:23:13;;;;;;;2.53;1.50;;;;;;;;;;10310811;28;20046;-68
2022/06/02 12:28:37;;;;;;;2.65;1.70;;;;;;;;;;10323779;28;20038;-68
2022/06/02 12:33:58;;;;;;;9.75;2.63;;;;;;;;;;10318849;28;20058;-67
2022/06/02 12:39:15;;;;;;;1.83;1.35;;;;;;;;;;10324167;28;20039;-68
2022/06/02 12:44:48;;;;;;;1.48;1.33;;;;;;;;;;10322928;28;20043;-67
2022/06/02 12:50:35;;;;;;;3.55;1.80;;;;;;;;;;10320929;28;20051;-67
2022/06/02 12:56:05;;;;;;;6.95;1.90;;;;;;;;;;10285725;28;20054;-68
2022/06/02 13:01:42;;;;;;;2.03;1.60;;;;;;;;;;10313027;28;20063;-67
2022/06/02 13:07:20;;;;;;;4.35;1.75;;;;;;;;;;10294712;28;20341;-69
2022/06/02 13:12:54;;;;;;;1.77;1.40;;;;;;;;;;10302296;28;20385;-69
2022/06/02 13:18:23;;;;;;;9.95;1.75;;;;;;;;;;10306728;28;20043;-68
2022/06/02 13:24:03;;;;;;;1.95;1.40;;;;;;;;;;10265172;28;20254;-68
2022/06/02 13:29:25;;;;;;;3.58;2.15;;;;;;;;;;10263998;28;20422;-68
2022/06/02 13:35:16;;;;;;;1.83;1.58;;;;;;;;;;10268088;28;20059;-69
2022/06/02 13:40:27;;;;;;;1.50;1.40;;;;;;;;;;10262197;29;20254;-70
2022/06/02 13:46:13;;;;;;;2.55;1.70;;;;;;;;;;10263111;29;20051;-75
2022/06/02 13:52:00;;;;;;;1.60;1.50;;;;;;;;;;10102440;29;20237;-70
2022/06/02 13:57:34;;;;;;;2.70;1.38;;;;;;;;;;10130854;29;20507;-69
2022/06/02 14:03:08;;;;;;;2.92;1.60;;;;;;;;;;10190821;29;20109;-69
2022/06/02 14:08:31;;;;;;;2.90;1.60;;;;;;;;;;10192274;29;20064;-69
2022/06/02 14:14:02;;;;;;;1.50;1.38;;;;;;;;;;10201341;29;20067;-70
2022/06/02 14:19:27;;;;;;;2.20;1.58;;;;;;;;;;10201468;29;20068;-71
2022/06/02 14:24:37;;;;;;;1.60;1.50;;;;;;;;;;10226887;28;20053;-70
2022/06/02 14:29:48;;;;;;;1.95;1.65;;;;;;;;;;10322422;28;20046;-70
2022/06/02 14:40:09;;;;;;;2.38;1.75;;;;;;;;;;11290154;23;20413;-68
2022/06/02 14:45:16;;;;;;;7.55;1.75;;;;;;;;;;10326081;28;20298;-70
2022/06/02 14:55:31;;;;;;;5.60;3.20;;;;;;;;;;10356008;28;20050;-69
2022/06/02 15:00:39;;;;;;;4.25;2.97;;;;;;;;;;10373245;28;20049;-70
2022/06/02 15:05:55;;;;;;;3.25;2.47;;;;;;;;;;10372196;28;20291;-70
2022/06/02 15:11:07;;;;;;;3.25;2.60;;;;;;;;;;10356755;28;20061;-71
2022/06/02 15:16:40;;;;;;;3.47;2.10;;;;;;;;;;10371698;28;20248;-68
2022/06/02 15:21:58;;;;;;;4.38;3.10;;;;;;;;;;10395509;23;20050;-69
2022/06/02 15:27:32;;;;;;;4.88;2.92;;;;;;;;;;10461718;23;20022;-69
2022/06/02 15:33:06;;;;;;;6.20;2.90;;;;;;;;;;10320200;28;20245;-70
2022/06/02 15:38:50;;;;;;;7.07;2.88;;;;;;;;;;10331303;28;20045;-70
2022/06/02 15:44:24;;;;;;;5.33;2.40;;;;;;;;;;10318894;28;20045;-69
2022/06/02 15:49:54;;;;;;;;;;;;;;;;;;10305058;28;20357;-69
2022/06/02 15:55:31;;;;;;;4.22;2.65;;;;;;;;;;10258184;28;19929;-68
2022/06/02 16:01:19;;;;;;;5.22;2.42;;;;;;;;;;10253326;28;20078;-70
2022/06/02 16:06:52;;;;;;;4.57;2.38;;;;;;;;;;10195107;29;20382;-71
2022/06/02 16:12:30;;;;;;;5.40;2.97;;;;;;;;;;10185580;29;20060;-69
2022/06/02 16:18:09;;;;;;;7.18;2.28;;;;;;;;;;10190134;29;20064;-71
2022/06/02 16:23:38;;;;;;;3.13;2.78;;;;;;;;;;10162967;29;20057;-69
2022/06/02 16:29:16;;;;;;;2.90;2.63;;;;;;;;;;10159005;29;20064;-69
2022/06/02 16:34:44;;;;;;;4.53;2.05;;;;;;;;;;10157662;29;20049;-71
2022/06/02 16:39:58;;;;;;;7.57;4.22;;;;;;;;;;10191162;28;20051;-70
2022/06/02 16:45:18;;;;;;;;;;;;;;;;;;10271659;28;20242;-70
2022/06/02 16:50:35;;;;;;;3.38;1.75;;;;;;;;;;10265124;28;20210;-68
2022/06/02 16:55:52;;;;;;;3.35;1.85;;;;;;;;;;10283332;28;20326;-69
2022/06/02 17:01:04;;;;;;;2.20;2.00;;;;;;;;;;10277900;28;20249;-69
2022/06/02 17:06:41;;;;;;;3.33;2.45;;;;;;;;;;10285369;28;20051;-70
2022/06/02 17:11:48;;;;;;;6.95;2.40;;;;;;;;;;10267941;28;20158;-68
2022/06/02 17:17:30;;;;;;;3.38;2.50;;;;;;;;;;10276745;28;20086;-69
2022/06/02 17:22:49;;;;;;;4.95;2.58;;;;;;;;;;10262341;28;20062;-71
2022/06/02 17:28:09;;;;;;;3.15;2.80;;;;;;;;;;10263247;28;20070;-70
2022/06/02 17:33:23;;;;;;;2.78;2.53;;;;;;;;;;10264474;29;20047;-69
2022/06/02 17:39:08;;;;;;;3.95;2.83;;;;;;;;;;10278138;28;20051;-71
2022/06/02 17:44:25;;;;;;;7.47;3.35;;;;;;;;;;10285680;28;20381;-70
2022/06/02 17:49:42;;;;;;;4.07;3.38;;;;;;;;;;10271349;28;20062;-70
2022/06/02 17:55:11;;;;;;;7.22;4.03;;;;;;;;;;10278475;28;20046;-68
2022/06/02 18:00:24;;;;;;;8.48;3.05;;;;;;;;;;10275569;28;20069;-70
2022/06/02 18:05:46;;;;;;;3.43;3.10;;;;;;;;;;10285256;28;20039;-70
2022/06/02 18:11:29;;;;;;;4.32;3.60;;;;;;;;;;10261315;29;20094;-70
2022/06/02 18:17:08;;;;;;;6.03;4.00;;;;;;;;;;10213563;28;20110;-71
2022/06/02 18:22:46;;;;;;;7.88;4.60;;;;;;;;;;10242051;28;20353;-72
2022/06/02 18:28:37;;;;;;;12.25;4.72;;;;;;;;;;10264394;28;20071;-69
2022/06/02 18:33:59;;;;;;;9.20;4.80;;;;;;;;;;10285213;28;20322;-69
2022/06/02 18:39:33;;;;;;;14.35;5.65;;;;;;;;;;10281619;28;20047;-68
2022/06/02 18:45:09;;;;;;;15.60;5.15;;;;;;;;;;10277078;28;20273;-68
2022/06/02 18:50:35;;;;;;;7.85;4.90;;;;;;;;;;10258341;28;20063;-68
2022/06/02 18:56:19;;;;;;;5.55;4.45;;;;;;;;;;10287306;28;20069;-69
2022/06/02 19:01:43;;;;;;;6.75;4.15;;;;;;;;;;10278318;29;20035;-68
2022/06/02 19:18:57;;;;;;;11.38;7.07;;;;;;;;;;10189477;29;20044;-69
2022/06/02 19:24:21;;;;;;;20.88;8.68;;;;;;;;;;10198703;29;20251;-69
2022/06/02 19:29:35;;;;;;;12.52;6.93;;;;;;;;;;10195379;29;20063;-68
2022/06/02 19:34:47;;;;;;;14.50;7.25;;;;;;;;;;10202492;29;20063;-68
2022/06/02 19:39:58;;;;;;;11.48;6.47;;;;;;;;;;10208072;29;20107;-69
2022/06/02 19:45:11;;;;;;;20.33;7.22;;;;;;;;;;10197668;29;20116;-68
2022/06/02 19:50:21;;;;;;;13.50;7.65;;;;;;;;;;10261567;29;20054;-69
2022/06/02 19:55:32;;;;;;;15.80;8.55;;;;;;;;;;10287152;28;20043;-68
2022/06/02 20:00:48;;;;;;;13.45;8.57;;;;;;;;;;10290272;28;20051;-70
2022/06/02 20:05:56;;;;;;;18.67;9.23;;;;;;;;;;10262141;29;20055;-68
2022/06/02 20:11:04;;;;;;;15.18;8.27;;;;;;;;;;10281677;28;20050;-69
2022/06/02 20:16:11;;;;;;;11.77;7.65;;;;;;;;;;10283708;28;20046;-68
2022/06/02 20:21:22;;;;;;;12.95;7.68;;;;;;;;;;10271095;29;20050;-68
2022/06/02 20:26:33;;;;;;;14.43;8.32;;;;;;;;;;10283810;28;20356;-70
2022/06/02 20:31:44;;;;;;;15.60;8.13;;;;;;;;;;10277028;28;20059;-69
2022/06/02 20:37:12;;;;;;;14.00;8.50;;;;;;;;;;10281272;28;20059;-69
2022/06/02 20:42:29;;;;;;;11.70;7.63;;;;;;;;;;10280430;28;20035;-69
2022/06/02 20:47:46;;;;;;;15.68;8.38;;;;;;;;;;10288679;28;20065;-70
2022/06/02 20:52:54;;;;;;;13.90;8.18;;;;;;;;;;10281319;28;20051;-69
2022/06/02 20:58:26;;;;;;;13.25;8.38;;;;;;;;;;10283724;28;20043;-68
2022/06/02 21:03:34;;;;;;;15.00;9.07;;;;;;;;;;10276043;28;20054;-69
2022/06/02 21:08:45;;;;;;;12.00;8.25;;;;;;;;;;10268381;28;20078;-67
2022/06/02 21:13:55;;;;;;;12.43;8.07;;;;;;;;;;10290050;28;20039;-69
2022/06/02 21:19:04;;;;;;;11.68;7.68;;;;;;;;;;10265204;29;20242;-69
2022/06/02 21:24:11;;;;;;;12.45;8.32;;;;;;;;;;10268375;29;20047;-68
2022/06/02 21:29:18;;;;;;;17.70;8.95;;;;;;;;;;10278951;28;20067;-68
2022/06/02 21:34:20;;;;;;;19.38;9.77;;;;;;;;;;10270500;29;20043;-69
2022/06/02 21:39:32;;;;;;;16.95;10.00;;;;;;;;;;10290337;28;20051;-69
2022/06/02 21:44:45;;;;;;;19.95;11.52;;;;;;;;;;10288967;28;20035;-69
2022/06/02 21:49:52;;;;;;;19.85;13.05;;;;;;;;;;10287535;28;20047;-69
2022/06/02 21:55:10;;;;;;;19.90;12.93;;;;;;;;;;10274996;28;20051;-69
2022/06/02 22:00:51;;;;;;;27.77;14.25;;;;;;;;;;10276127;28;20121;-68
2022/06/02 22:06:02;;;;;;;23.33;13.00;;;;;;;;;;10264239;28;20051;-69
2022/06/02 22:11:14;;;;;;;25.77;14.00;;;;;;;;;;10287241;28;20043;-69
2022/06/02 22:16:21;;;;;;;22.05;13.55;;;;;;;;;;10286940;28;20051;-68
2022/06/02 22:21:35;;;;;;;21.13;12.88;;;;;;;;;;10286809;28;20051;-68
2022/06/02 22:26:44;;;;;;;23.83;13.57;;;;;;;;;;10287276;28;20054;-68
2022/06/02 22:32:17;;;;;;;23.35;12.80;;;;;;;;;;10272790;28;20071;-68
2022/06/02 22:37:33;;;;;;;21.88;11.75;;;;;;;;;;10286289;28;20054;-67
2022/06/02 22:42:51;;;;;;;23.00;12.15;;;;;;;;;;10285629;28;20051;-69
2022/06/02 22:48:22;;;;;;;29.92;12.27;;;;;;;;;;10285857;28;20046;-67
2022/06/02 22:53:52;;;;;;;23.40;12.55;;;;;;;;;;10270873;28;20062;-68
2022/06/02 22:59:17;;;;;;;24.95;12.75;;;;;;;;;;10286679;28;20054;-68
2022/06/02 23:04:49;;;;;;;20.48;11.98;;;;;;;;;;10284776;28;20043;-68
2022/06/02 23:09:58;;;;;;;23.58;13.55;;;;;;;;;;10288287;28;20409;-68
2022/06/02 23:15:21;;;;;;;21.58;13.00;;;;;;;;;;10279542;28;20059;-68
2022/06/02 23:20:37;;;;;;;21.42;12.80;;;;;;;;;;10292550;28;20334;-69
2022/06/02 23:25:49;;;;;;;23.80;12.73;;;;;;;;;;10280225;29;20074;-69
2022/06/02 23:31:09;;;;;;;19.48;12.65;;;;;;;;;;10278443;28;20071;-68
2022/06/02 23:36:24;;;;;;;20.65;12.25;;;;;;;;;;10292253;28;20043;-69
2022/06/02 23:47:20;;;;;;;20.50;10.77;;;;;;;;;;10292035;28;20543;-68
2022/06/02 23:52:51;;;;;;;16.75;10.63;;;;;;;;;;10291275;28;20043;-68
2022/06/02 23:58:11;;;;;;;17.98;10.43;;;;;;;;;;10278091;28;20075;-68
